Time;durP1;ratioP1;P1;durP2;ratioP2;P2;SDS_P1;SDS_P2;PMS_P1;PMS_P2;Temp;Humidity;BMP_temperature;BMP_pressure;BME280_temperature;BME280_humidity;BME280_pressure;Samples;Min_cycle;Max_cycle;Signal;HPM_P1;HPM_P2
2023/07/05 00:00:41;;;;;;;1.08;1.00;;;;;;;18.86;100.00;100199.59;4841100;28;20241;-81
2023/07/05 00:03:09;;;;;;;0.60;0.60;;;;;;;18.92;100.00;100216.44;4906434;28;20704;-81
2023/07/05 00:05:37;;;;;;;1.10;0.85;;;;;;;18.98;100.00;100214.47;4874797;28;20237;-80
2023/07/05 00:08:05;;;;;;;0.70;0.70;;;;;;;18.80;100.00;100197.09;4879855;28;20237;-80
2023/07/05 00:10:32;;;;;;;2.08;1.35;;;;;;;18.78;100.00;100220.38;4825410;28;20906;-81
2023/07/05 00:13:02;;;;;;;0.65;0.65;;;;;;;18.64;100.00;100235.97;4894069;28;20237;-81
2023/07/05 00:15:30;;;;;;;1.67;1.30;;;;;;;18.52;100.00;100217.50;4860003;28;20224;-80
2023/07/05 00:17:58;;;;;;;1.05;0.95;;;;;;;18.36;100.00;100226.88;4880858;28;20244;-80
2023/07/05 00:20:26;;;;;;;4.82;2.35;;;;;;;18.32;100.00;100227.88;4872821;28;20308;-81
2023/07/05 00:22:53;;;;;;;1.80;1.00;;;;;;;18.22;100.00;100233.44;4864520;28;20241;-81
2023/07/05 00:25:20;;;;;;;1.25;1.08;;;;;;;18.25;100.00;100242.31;4868676;28;20282;-81
2023/07/05 00:27:47;;;;;;;0.57;0.57;;;;;;;18.14;100.00;100267.53;4916007;28;20288;-81
2023/07/05 00:30:16;;;;;;;0.85;0.85;;;;;;;18.13;100.00;100302.34;4899510;28;20703;-80
2023/07/05 00:32:43;;;;;;;1.42;0.75;;;;;;;18.12;100.00;100300.59;4825406;28;20234;-80
2023/07/05 00:35:11;;;;;;;0.70;0.60;;;;;;;17.99;100.00;100281.28;4913403;28;20316;-85
2023/07/05 00:37:38;;;;;;;0.80;0.73;;;;;;;17.98;100.00;100266.13;4794124;28;20321;-83
2023/07/05 00:40:05;;;;;;;1.08;0.95;;;;;;;17.93;100.00;100254.66;4872499;28;20239;-81
2023/07/05 00:42:32;;;;;;;14.48;4.38;;;;;;;17.80;100.00;100235.34;4830513;28;20259;-81
2023/07/05 00:45:11;;;;;;;0.52;0.45;;;;;;;17.83;100.00;100219.22;4908512;28;20287;-81
2023/07/05 00:47:41;;;;;;;0.98;0.63;;;;;;;17.75;100.00;100204.28;4802402;28;20247;-81
2023/07/05 00:50:24;;;;;;;0.40;0.40;;;;;;;17.71;100.00;100189.22;4896405;28;20545;-82
2023/07/05 00:52:53;;;;;;;0.85;0.50;;;;;;;17.72;100.00;100199.88;4913750;28;20252;-82
2023/07/05 00:55:20;;;;;;;1.17;0.80;;;;;;;17.68;100.00;100202.69;4850194;28;20236;-81
2023/07/05 00:57:47;;;;;;;0.75;0.75;;;;;;;17.73;100.00;100196.31;4855478;28;20230;-82
2023/07/05 01:00:16;;;;;;;0.55;0.55;;;;;;;17.56;100.00;100204.69;4868351;28;20242;-82
2023/07/05 01:02:46;;;;;;;0.70;0.50;;;;;;;17.59;100.00;100190.38;4866288;28;20225;-80
2023/07/05 01:05:13;;;;;;;0.43;0.43;;;;;;;17.60;100.00;100211.72;4889683;28;20253;-82
2023/07/05 01:07:40;;;;;;;0.95;0.80;;;;;;;17.53;100.00;100203.88;4854331;28;20311;-81
2023/07/05 01:10:16;;;;;;;0.50;0.50;;;;;;;17.44;100.00;100204.09;4900854;28;20237;-81
2023/07/05 01:12:47;;;;;;;1.20;0.70;;;;;;;17.38;100.00;100209.56;4841165;28;20225;-80
2023/07/05 01:15:16;;;;;;;1.00;0.90;;;;;;;17.29;100.00;100221.34;4840349;28;20233;-82
2023/07/05 01:17:43;;;;;;;0.80;0.80;;;;;;;17.27;100.00;100223.19;4878315;28;20233;-80
2023/07/05 01:20:43;;;;;;;0.68;0.68;;;;;;;17.27;100.00;100244.56;4882896;28;20311;-85
2023/07/05 01:23:29;;;;;;;0.93;0.82;;;;;;;17.20;100.00;100245.59;4904848;28;20245;-83
2023/07/05 01:26:17;;;;;;;0.75;0.73;;;;;;;17.22;100.00;100265.16;4890360;28;20252;-81
2023/07/05 01:29:08;;;;;;;0.68;0.68;;;;;;;17.14;100.00;100259.97;4892887;28;20311;-81
2023/07/05 01:31:49;;;;;;;0.70;0.70;;;;;;;17.21;100.00;100258.94;4828753;28;20237;-80
2023/07/05 01:34:38;;;;;;;1.17;1.05;;;;;;;17.28;100.00;100262.34;4833399;28;20245;-81
2023/07/05 01:37:09;;;;;;;1.20;1.10;;;;;;;17.32;100.00;100277.41;4896566;28;20296;-81
2023/07/05 01:39:36;;;;;;;1.05;0.95;;;;;;;17.30;100.00;100287.25;4902844;28;20232;-81
2023/07/05 01:42:04;;;;;;;0.73;0.73;;;;;;;17.28;100.00;100292.63;4813334;28;20230;-80
2023/07/05 01:44:31;;;;;;;1.95;1.42;;;;;;;17.24;100.00;100284.72;4857317;28;20258;-81
2023/07/05 01:47:04;;;;;;;1.00;0.85;;;;;;;17.25;100.00;100294.47;4835224;28;20320;-80
2023/07/05 01:49:45;;;;;;;3.80;2.25;;;;;;;17.19;100.00;100297.28;4880661;28;20321;-80
2023/07/05 01:52:19;;;;;;;2.45;1.77;;;;;;;17.23;100.00;100307.88;4860450;28;20221;-80
2023/07/05 01:55:13;;;;;;;1.23;1.10;;;;;;;17.21;100.00;100304.34;4848183;28;20241;-80
2023/07/05 01:57:47;;;;;;;1.17;0.93;;;;;;;17.19;100.00;100305.31;4860383;28;20260;-80
2023/07/05 02:00:16;;;;;;;1.35;0.98;;;;;;;17.22;100.00;100305.25;4893575;28;20232;-81
2023/07/05 02:02:46;;;;;;;3.42;2.38;;;;;;;17.19;100.00;100314.19;4874895;28;20237;-81
2023/07/05 02:05:14;;;;;;;1.58;1.23;;;;;;;17.20;100.00;100320.41;4896714;28;20268;-81
2023/07/05 02:07:43;;;;;;;1.17;1.00;;;;;;;17.21;100.00;100323.06;4927885;28;20233;-81
2023/07/05 02:10:11;;;;;;;1.15;1.00;;;;;;;17.20;100.00;100333.78;4919873;28;20237;-80
2023/07/05 02:12:37;;;;;;;1.42;1.15;;;;;;;17.22;100.00;100331.97;4802765;28;20246;-81
2023/07/05 02:15:05;;;;;;;1.40;1.10;;;;;;;17.26;100.00;100339.88;4891608;28;20229;-81
2023/07/05 02:17:31;;;;;;;3.03;2.00;;;;;;;17.26;100.00;100342.56;4872153;28;20251;-81
2023/07/05 02:19:58;;;;;;;1.52;1.15;;;;;;;17.24;100.00;100330.13;4940346;28;20320;-80
2023/07/05 02:22:25;;;;;;;4.45;2.75;;;;;;;17.19;100.00;100332.03;4904251;28;20236;-80
2023/07/05 02:24:52;;;;;;;1.38;1.10;;;;;;;17.27;100.00;100336.31;4911038;28;20557;-80
2023/07/05 02:27:19;;;;;;;2.10;1.52;;;;;;;17.27;100.00;100324.72;4858367;28;20240;-81
2023/07/05 02:29:46;;;;;;;1.52;1.23;;;;;;;17.25;100.00;100321.22;4922105;28;20233;-80
2023/07/05 02:32:13;;;;;;;1.75;1.33;;;;;;;17.27;100.00;100319.38;4878663;28;20312;-81
2023/07/05 02:34:40;;;;;;;1.98;1.52;;;;;;;17.30;100.00;100327.34;4804210;28;20257;-81
2023/07/05 02:37:10;;;;;;;4.15;2.42;;;;;;;17.27;100.00;100322.94;4919309;28;20233;-82
2023/07/05 02:39:36;;;;;;;4.05;2.38;;;;;;;17.31;100.00;100326.44;4740120;28;20584;-82
2023/07/05 02:42:04;;;;;;;1.42;1.30;;;;;;;17.34;100.00;100323.69;4856030;28;20224;-80
2023/07/05 02:44:31;;;;;;;2.67;2.15;;;;;;;17.35;100.00;100321.91;4794434;28;20344;-82
2023/07/05 02:46:57;;;;;;;2.03;1.63;;;;;;;17.32;100.00;100328.19;4912047;28;20670;-83
2023/07/05 02:49:24;;;;;;;5.68;3.10;;;;;;;17.31;100.00;100329.09;4793830;28;20241;-81
2023/07/05 02:51:51;;;;;;;1.67;1.27;;;;;;;17.32;100.00;100336.22;4890239;28;20233;-80
2023/07/05 02:54:18;;;;;;;4.85;3.05;;;;;;;17.30;100.00;100343.38;4882434;28;20240;-82
2023/07/05 02:56:45;;;;;;;1.20;1.10;;;;;;;17.30;100.00;100339.81;4845594;28;20245;-81
2023/07/05 02:59:12;;;;;;;1.80;1.50;;;;;;;17.26;100.00;100347.91;4890674;28;20233;-81
2023/07/05 03:01:38;;;;;;;1.15;1.05;;;;;;;17.25;100.00;100343.47;4836752;28;20229;-81
2023/07/05 03:04:05;;;;;;;1.42;1.10;;;;;;;17.30;100.00;100361.22;4914912;28;20325;-81
2023/07/05 03:06:32;;;;;;;1.60;1.30;;;;;;;17.30;100.00;100361.22;4912618;28;20245;-82
2023/07/05 03:09:00;;;;;;;1.50;1.15;;;;;;;17.28;100.00;100356.78;4887132;28;20236;-82
2023/07/05 03:11:27;;;;;;;2.25;1.50;;;;;;;17.25;100.00;100364.84;4896231;28;20237;-81
2023/07/05 03:13:54;;;;;;;1.23;1.02;;;;;;;17.27;100.00;100383.53;4891002;28;20241;-81
2023/07/05 03:16:22;;;;;;;4.65;2.42;;;;;;;17.27;100.00;100394.22;4871372;28;20236;-81
2023/07/05 03:18:50;;;;;;;1.42;1.13;;;;;;;17.25;100.00;100404.06;4886206;28;20324;-82
2023/07/05 03:21:18;;;;;;;4.35;2.38;;;;;;;17.25;100.00;100420.97;4888985;28;20229;-82
2023/07/05 03:23:46;;;;;;;0.68;0.68;;;;;;;17.27;100.00;100434.31;4917569;28;20233;-81
2023/07/05 03:26:14;;;;;;;2.28;1.30;;;;;;;17.35;100.00;100442.19;4931381;28;20245;-82
2023/07/05 03:28:41;;;;;;;0.60;0.60;;;;;;;17.33;100.00;100436.88;4936603;28;20242;-82
2023/07/05 03:31:12;;;;;;;0.60;0.60;;;;;;;17.32;100.00;100442.25;4918406;28;20291;-82
2023/07/05 03:33:41;;;;;;;0.80;0.80;;;;;;;17.34;100.00;100432.41;4879626;28;20241;-81
2023/07/05 03:36:15;;;;;;;0.75;0.70;;;;;;;17.37;100.00;100454.63;4945898;28;20231;-81
2023/07/05 03:38:44;;;;;;;0.80;0.75;;;;;;;17.35;100.00;100448.41;4897864;28;20708;-82
2023/07/05 03:41:18;;;;;;;1.60;1.20;;;;;;;17.34;100.00;100457.34;4928254;28;20257;-81
2023/07/05 03:43:49;;;;;;;2.00;1.40;;;;;;;17.34;100.00;100469.84;4897367;28;20240;-81
2023/07/05 03:46:19;;;;;;;12.23;3.88;;;;;;;17.39;100.00;100473.31;4870176;28;20252;-81
2023/07/05 03:48:48;;;;;;;0.60;0.60;;;;;;;17.36;100.00;100479.59;4906690;28;20237;-81
2023/07/05 03:51:18;;;;;;;1.25;1.13;;;;;;;17.40;100.00;100473.28;4876860;28;20233;-82
2023/07/05 03:53:49;;;;;;;1.25;1.02;;;;;;;17.35;100.00;100468.91;4910974;28;20248;-82
2023/07/05 03:56:16;;;;;;;1.48;1.25;;;;;;;17.36;100.00;100462.66;4888710;28;20236;-82
2023/07/05 03:58:44;;;;;;;1.02;0.93;;;;;;;17.37;100.00;100469.78;4923850;28;20237;-82
2023/07/05 04:01:20;;;;;;;1.45;1.17;;;;;;;17.37;100.00;100486.69;4891014;28;20719;-82
2023/07/05 04:03:50;;;;;;;2.05;1.83;;;;;;;17.40;100.00;100496.44;4863348;28;20255;-82
2023/07/05 04:06:17;;;;;;;2.78;1.73;;;;;;;17.40;100.00;100497.34;4897285;28;20761;-83
2023/07/05 04:08:45;;;;;;;1.23;1.02;;;;;;;17.44;100.00;100500.84;4923748;28;20229;-82
2023/07/05 04:11:12;;;;;;;1.75;1.38;;;;;;;17.45;100.00;100506.16;4870138;28;20232;-83
2023/07/05 04:13:40;;;;;;;1.83;1.42;;;;;;;17.40;100.00;100507.16;4820948;28;20231;-83
2023/07/05 04:16:12;;;;;;;0.95;0.80;;;;;;;17.38;100.00;100507.16;4910343;28;20292;-83
2023/07/05 04:18:40;;;;;;;0.77;0.70;;;;;;;17.40;100.00;100512.50;4872286;28;20241;-83
2023/07/05 04:21:08;;;;;;;0.90;0.75;;;;;;;17.41;100.00;100516.94;4901782;28;20247;-83
2023/07/05 04:23:36;;;;;;;4.30;1.73;;;;;;;17.39;100.00;100514.28;4879757;28;20252;-84
2023/07/05 04:26:06;;;;;;;0.70;0.68;;;;;;;17.42;100.00;100524.03;4893125;28;20234;-83
2023/07/05 04:28:33;;;;;;;5.22;1.88;;;;;;;17.40;100.00;100524.06;4875942;28;20251;-83
2023/07/05 04:31:00;;;;;;;0.93;0.85;;;;;;;17.45;100.00;100527.53;4897740;28;20225;-83
2023/07/05 04:33:27;;;;;;;1.75;1.35;;;;;;;17.44;100.00;100533.81;4835084;28;20225;-83
2023/07/05 04:35:56;;;;;;;0.30;0.30;;;;;;;17.48;100.00;100540.84;4904361;28;20228;-83
2023/07/05 04:38:25;;;;;;;3.45;1.77;;;;;;;17.49;100.00;100547.97;4848504;28;20229;-83
2023/07/05 04:40:53;;;;;;;0.70;0.70;;;;;;;17.50;100.00;100533.69;4885745;28;20295;-83
2023/07/05 04:43:20;;;;;;;15.60;5.93;;;;;;;17.52;100.00;100544.34;4757396;28;20241;-84
2023/07/05 04:45:52;;;;;;;0.40;0.40;;;;;;;17.52;100.00;100534.53;4927284;28;20236;-83
2023/07/05 04:48:19;;;;;;;9.93;3.53;;;;;;;17.51;100.00;100532.78;4903182;28;20315;-83
2023/07/05 04:50:52;;;;;;;0.60;0.40;;;;;;;17.53;100.00;100533.63;4914149;28;20229;-83
2023/07/05 04:53:20;;;;;;;7.10;3.13;;;;;;;17.59;100.00;100544.22;4809926;28;20340;-83
2023/07/05 04:55:49;;;;;;;0.50;0.50;;;;;;;17.54;100.00;100555.91;4898921;28;20237;-78
2023/07/05 04:58:16;;;;;;;0.82;0.70;;;;;;;17.54;100.00;100550.56;4874605;28;20234;-78
2023/07/05 05:00:49;;;;;;;0.45;0.45;;;;;;;17.56;100.00;100568.34;4906981;28;20253;-80
2023/07/05 05:03:18;;;;;;;0.70;0.70;;;;;;;17.59;100.00;100573.63;4897104;28;20240;-80
2023/07/05 05:05:48;;;;;;;0.98;0.88;;;;;;;17.63;100.00;100578.94;4936280;28;20232;-79
2023/07/05 05:08:15;;;;;;;1.20;0.90;;;;;;;17.62;100.00;100578.06;4863913;28;20586;-78
2023/07/05 05:10:43;;;;;;;0.70;0.65;;;;;;;17.69;100.00;100592.22;4922643;28;20228;-79
2023/07/05 05:13:10;;;;;;;0.85;0.80;;;;;;;17.75;100.00;100616.19;4938426;28;20224;-80
2023/07/05 05:15:38;;;;;;;0.90;0.75;;;;;;;17.70;100.00;100632.31;4812746;28;20248;-82
2023/07/05 05:18:08;;;;;;;0.60;0.60;;;;;;;17.38;100.00;100627.47;4865049;28;20230;-79
2023/07/05 05:20:39;;;;;;;0.80;0.77;;;;;;;17.19;100.00;100612.63;4810804;28;20260;-79
2023/07/05 05:23:06;;;;;;;0.88;0.80;;;;;;;17.10;100.00;100620.78;4839999;28;20241;-80
2023/07/05 05:25:34;;;;;;;1.80;1.38;;;;;;;16.94;100.00;100617.44;4874873;28;20359;-79
2023/07/05 05:28:01;;;;;;;0.80;0.75;;;;;;;16.76;100.00;100599.84;4905950;28;20712;-78
2023/07/05 05:30:31;;;;;;;1.70;1.48;;;;;;;16.66;100.00;100582.19;4832692;28;20234;-80
2023/07/05 05:32:58;;;;;;;0.68;0.68;;;;;;;16.55;100.00;100541.38;4874510;28;20238;-81
2023/07/05 05:35:25;;;;;;;3.53;2.25;;;;;;;16.59;100.00;100537.75;4847012;28;20285;-78
2023/07/05 05:37:52;;;;;;;0.73;0.73;;;;;;;16.41;100.00;100517.53;4890465;28;20240;-77
2023/07/05 05:40:19;;;;;;;0.75;0.75;;;;;;;16.46;100.00;100496.13;4845800;28;20228;-77
2023/07/05 05:42:46;;;;;;;1.40;1.10;;;;;;;16.41;100.00;100481.94;4892400;28;20292;-78
2023/07/05 05:45:13;;;;;;;0.70;0.70;;;;;;;16.37;100.00;100467.75;4919092;28;20236;-80
2023/07/05 05:47:40;;;;;;;0.50;0.50;;;;;;;16.57;100.00;100479.03;4816432;28;20244;-78
2023/07/05 05:50:07;;;;;;;1.02;1.02;;;;;;;16.44;100.00;100464.09;4861392;28;20229;-79
2023/07/05 05:52:35;;;;;;;0.80;0.70;;;;;;;16.49;100.00;100458.69;4798688;28;20324;-79
2023/07/05 05:55:03;;;;;;;0.60;0.60;;;;;;;16.39;100.00;100441.94;4844794;28;20239;-79
2023/07/05 05:57:30;;;;;;;0.80;0.80;;;;;;;16.35;100.00;100444.69;4838498;28;20229;-79
2023/07/05 05:59:56;;;;;;;0.90;0.90;;;;;;;16.52;100.00;100464.00;4896605;28;20228;-79
2023/07/05 06:02:23;;;;;;;1.17;0.90;;;;;;;16.79;100.00;100479.63;4880753;28;20240;-79
2023/07/05 06:04:50;;;;;;;0.60;0.60;;;;;;;16.79;100.00;100479.63;4865330;28;20241;-80
2023/07/05 06:07:17;;;;;;;0.80;0.80;;;;;;;16.85;100.00;100484.88;4894270;28;20236;-80
2023/07/05 06:09:47;;;;;;;0.60;0.60;;;;;;;16.88;100.00;100467.91;4880169;28;20256;-79
2023/07/05 06:12:13;;;;;;;0.63;0.63;;;;;;;16.97;100.00;100481.16;4887159;28;20229;-79
2023/07/05 06:14:40;;;;;;;0.50;0.50;;;;;;;17.11;100.00;100483.59;4886997;28;20682;-79
2023/07/05 06:17:07;;;;;;;0.95;0.95;;;;;;;17.02;100.00;100455.25;4899794;28;20246;-78
2023/07/05 06:19:34;;;;;;;0.52;0.52;;;;;;;17.02;100.00;100439.22;4813093;28;21535;-79
2023/07/05 06:22:01;;;;;;;1.25;1.15;;;;;;;17.00;100.00;100432.13;4896035;28;20244;-77
2023/07/05 06:24:27;;;;;;;1.13;1.02;;;;;;;17.01;100.00;100410.72;4902006;28;20256;-78
2023/07/05 06:26:54;;;;;;;1.52;1.42;;;;;;;17.11;100.00;100406.09;4897958;28;20239;-78
2023/07/05 06:29:21;;;;;;;1.08;0.98;;;;;;;17.36;100.00;100410.09;4897911;28;20240;-78
2023/07/05 06:31:48;;;;;;;1.00;0.90;;;;;;;17.38;100.00;100396.69;4888863;28;20301;-76
2023/07/05 06:34:17;;;;;;;0.95;0.88;;;;;;;17.18;100.00;100367.66;4884741;28;20229;-78
2023/07/05 06:36:45;;;;;;;0.80;0.80;;;;;;;17.35;100.00;100370.91;4892288;28;20261;-78
2023/07/05 06:39:13;;;;;;;0.77;0.77;;;;;;;17.37;100.00;100363.72;4902090;28;20230;-76
2023/07/05 06:41:40;;;;;;;0.85;0.65;;;;;;;17.22;100.00;100326.63;4818913;28;20255;-76
2023/07/05 06:44:07;;;;;;;0.65;0.65;;;;;;;17.37;100.00;100318.28;4881256;28;20253;-77
2023/07/05 06:46:33;;;;;;;0.68;0.68;;;;;;;17.54;100.00;100312.59;4806114;28;20238;-78
2023/07/05 06:49:01;;;;;;;0.80;0.80;;;;;;;17.41;100.00;100285.22;4904644;28;20288;-78
2023/07/05 06:51:28;;;;;;;1.45;1.17;;;;;;;17.43;100.00;100266.50;4795153;28;20240;-77
2023/07/05 06:53:54;;;;;;;0.50;0.50;;;;;;;17.53;100.00;100252.00;4859222;28;20237;-79
2023/07/05 06:56:21;;;;;;;1.77;1.30;;;;;;;17.85;100.00;100257.53;4845650;28;20238;-78
2023/07/05 06:58:48;;;;;;;0.70;0.70;;;;;;;17.88;100.00;100221.81;4875541;28;20232;-79
2023/07/05 07:01:15;;;;;;;2.50;1.90;;;;;;;18.10;100.00;100225.69;4898859;28;20232;-80
2023/07/05 07:03:41;;;;;;;0.77;0.70;;;;;;;18.12;100.00;100204.25;4792644;28;20305;-79
2023/07/05 07:06:10;;;;;;;0.50;0.50;;;;;;;18.51;100.00;100243.41;4843079;29;20241;-80
2023/07/05 07:08:38;;;;;;;0.65;0.65;;;;;;;18.65;100.00;100243.06;4840316;28;20228;-76
2023/07/05 07:11:07;;;;;;;0.40;0.40;;;;;;;18.62;100.00;100186.03;4824958;28;20240;-77
2023/07/05 07:13:34;;;;;;;0.70;0.70;;;;;;;18.91;100.00;100212.00;4917341;28;20308;-78
2023/07/05 07:16:07;;;;;;;1.00;1.00;;;;;;;18.57;100.00;100167.38;4793743;28;20274;-80
2023/07/05 07:18:36;;;;;;;0.63;0.63;;;;;;;18.68;100.00;100168.00;4801680;28;20323;-78
2023/07/05 07:21:09;;;;;;;0.70;0.70;;;;;;;18.38;100.00;100120.63;4950165;28;20229;-78
2023/07/05 07:23:40;;;;;;;0.50;0.50;;;;;;;18.30;100.00;100093.19;4923991;28;20236;-78
2023/07/05 07:26:18;;;;;;;0.60;0.60;;;;;;;18.03;100.00;100076.06;4892075;28;20241;-78
2023/07/05 07:28:53;;;;;;;0.32;0.32;;;;;;;18.15;100.00;100070.38;4895292;28;20356;-78
2023/07/05 07:31:29;;;;;;;21.08;7.97;;;;;;;18.29;100.00;100083.41;4877097;28;20253;-78
2023/07/05 07:34:00;;;;;;;0.30;0.30;;;;;;;18.31;100.00;100071.72;4810232;28;20300;-78
2023/07/05 07:36:35;;;;;;;6.07;2.25;;;;;;;18.48;100.00;100048.03;4813577;28;20280;-78
2023/07/05 07:39:05;;;;;;;0.30;0.30;;;;;;;18.44;100.00;100013.34;4934110;28;20225;-78
2023/07/05 07:41:37;;;;;;;0.38;0.38;;;;;;;18.98;100.00;100074.22;4952758;28;20236;-78
2023/07/05 07:44:12;;;;;;;0.65;0.65;;;;;;;19.33;100.00;100059.69;4957610;28;20238;-79
2023/07/05 07:46:47;;;;;;;0.30;0.30;;;;;;;19.56;100.00;100051.84;4976465;28;20232;-78
2023/07/05 07:49:17;;;;;;;0.45;0.45;;;;;;;19.33;100.00;100008.75;4973672;28;20223;-78
2023/07/05 07:51:47;;;;;;;0.40;0.40;;;;;;;19.18;100.00;99989.59;4959588;28;20196;-78
2023/07/05 07:54:26;;;;;;;0.20;0.20;;;;;;;18.97;100.00;99973.31;4971965;28;20232;-78
2023/07/05 08:15:47;;;;;;;1.10;1.00;;;;;;;18.85;100.00;99832.63;5235074;23;20240;-75
2023/07/05 08:18:14;;;;;;;1.85;1.20;;;;;;;19.15;100.00;99887.81;4900984;28;20324;-77
2023/07/05 08:20:41;;;;;;;0.80;0.80;;;;;;;18.88;100.00;99875.38;4909342;28;20236;-75
2023/07/05 08:23:08;;;;;;;1.20;1.10;;;;;;;18.79;100.00;99855.13;4903068;28;20251;-76
2023/07/05 08:25:43;;;;;;;0.65;0.63;;;;;;;18.99;100.00;99913.41;4941032;28;20268;-75
2023/07/05 08:30:59;;;;;;;5.50;2.42;;;;;;;18.86;100.00;99847.75;5942579;23;20237;-74
2023/07/05 08:33:28;;;;;;;7.53;3.08;;;;;;;18.58;100.00;99822.81;4862177;28;20324;-74
2023/07/05 08:36:14;;;;;;;0.43;0.43;;;;;;;18.64;100.00;99861.00;4893751;28;20242;-75
2023/07/05 08:38:44;;;;;;;1.13;0.98;;;;;;;18.39;100.00;99812.69;4885280;28;20721;-74
2023/07/05 08:41:41;;;;;;;0.85;0.85;;;;;;;18.45;100.00;99769.66;4905281;28;20249;-75
2023/07/05 08:44:11;;;;;;;1.55;1.45;;;;;;;18.66;100.00;99789.50;4921292;28;20254;-75
2023/07/05 08:46:38;;;;;;;0.60;0.60;;;;;;;19.06;100.00;99847.94;4930741;28;20255;-74
2023/07/05 08:49:15;;;;;;;0.30;0.30;;;;;;;18.98;100.00;99835.75;4945803;28;20243;-74
2023/07/05 08:51:42;;;;;;;0.68;0.68;;;;;;;19.08;100.00;99829.13;4921484;28;20271;-74
2023/07/05 08:54:12;;;;;;;0.60;0.60;;;;;;;19.54;100.00;99848.97;4949297;28;20237;-79
2023/07/05 08:56:48;;;;;;;1.38;0.98;;;;;;;19.43;100.00;99776.91;4927206;28;20235;-79
2023/07/05 08:59:27;;;;;;;2.53;1.45;;;;;;;19.60;100.00;99736.97;4942505;28;20228;-79
2023/07/05 09:01:57;;;;;;;0.60;0.60;;;;;;;19.77;100.00;99739.00;4954119;28;20237;-79
2023/07/05 09:04:27;;;;;;;1.70;1.33;;;;;;;19.96;100.00;99779.38;4934059;28;20260;-79
2023/07/05 09:07:04;;;;;;;0.75;0.70;;;;;;;19.53;100.00;99673.78;4952947;28;20236;-78
2023/07/05 09:09:44;;;;;;;1.23;1.02;;;;;;;19.83;100.00;99703.00;4948076;28;21460;-74
2023/07/05 09:12:13;;;;;;;0.50;0.50;;;;;;;20.01;100.00;99687.03;4934643;28;20238;-74
2023/07/05 09:14:47;;;;;;;0.50;0.50;;;;;;;19.62;100.00;99586.72;4995311;23;20238;-75
2023/07/05 09:17:44;;;;;;;1.52;0.90;;;;;;;19.94;100.00;99637.22;4994622;28;20242;-76
2023/07/05 09:20:30;;;;;;;0.65;0.65;;;;;;;19.89;100.00;99560.53;5002986;28;20258;-75
2023/07/05 09:22:59;;;;;;;0.35;0.35;;;;;;;20.14;100.00;99633.69;4967598;28;20231;-77
2023/07/05 09:25:27;;;;;;;0.95;0.65;;;;;;;19.96;100.00;99588.84;4952124;28;20227;-76
2023/07/05 09:28:36;;;;;;;0.55;0.52;;;;;;;19.97;100.00;99519.03;4974334;28;20232;-73
2023/07/05 09:31:10;;;;;;;0.40;0.40;;;;;;;20.18;100.00;99556.59;4988140;28;20237;-73
2023/07/05 09:33:41;;;;;;;0.30;0.30;;;;;;;20.58;100.00;99593.31;4967072;28;20237;-73
2023/07/05 09:36:13;;;;;;;0.50;0.50;;;;;;;20.51;100.00;99484.41;4980139;28;20234;-73
2023/07/05 09:38:44;;;;;;;0.50;0.50;;;;;;;20.17;100.00;99447.47;4962414;28;20232;-74
2023/07/05 09:41:14;;;;;;;0.52;0.52;;;;;;;20.23;100.00;99436.44;4970987;28;20243;-73
2023/07/05 09:43:41;;;;;;;0.60;0.60;;;;;;;20.54;100.00;99468.16;4969809;28;20238;-76
2023/07/05 09:46:17;;;;;;;0.70;0.70;;;;;;;20.34;100.00;99409.97;4979503;28;20645;-76
2023/07/05 09:48:46;;;;;;;0.93;0.75;;;;;;;20.72;100.00;99418.91;4978794;28;20767;-77
2023/07/05 09:51:14;;;;;;;1.17;0.88;;;;;;;20.60;100.00;99345.16;4977398;28;20261;-77
2023/07/05 09:53:45;;;;;;;1.17;0.90;;;;;;;20.75;100.00;99365.91;4983389;28;20235;-79
2023/07/05 09:56:14;;;;;;;1.27;0.90;;;;;;;21.09;100.00;99385.75;4980129;28;20238;-78
2023/07/05 09:58:43;;;;;;;1.00;0.88;;;;;;;21.67;99.46;99399.78;4983041;28;20238;-76
2023/07/05 10:01:23;;;;;;;0.52;0.52;;;;;;;21.59;97.19;99329.34;4986310;28;20267;-78
2023/07/05 10:03:57;;;;;;;1.48;1.20;;;;;;;21.36;94.67;99238.28;4982383;28;20251;-78
2023/07/05 10:06:25;;;;;;;3.50;1.38;;;;;;;21.56;96.84;99305.31;4975358;28;20239;-75
2023/07/05 10:08:53;;;;;;;1.00;0.75;;;;;;;21.73;95.91;99286.44;4980668;28;20231;-79
2023/07/05 10:11:26;;;;;;;2.78;1.48;;;;;;;21.67;95.49;99242.84;4988816;28;20617;-73
2023/07/05 10:14:09;;;;;;;0.57;0.50;;;;;;;21.51;98.64;99236.56;4977495;28;20239;-76
2023/07/05 10:16:42;;;;;;;0.90;0.70;;;;;;;21.40;96.20;99176.16;4968807;28;20650;-76
2023/07/05 10:19:20;;;;;;;1.17;0.85;;;;;;;21.41;94.64;99150.16;4989021;28;20227;-78
2023/07/05 10:21:48;;;;;;;1.00;0.75;;;;;;;21.72;97.73;99227.31;4986096;28;20250;-79
2023/07/05 10:24:19;;;;;;;2.72;1.38;;;;;;;21.61;89.99;99101.47;4985603;28;20239;-76
2023/07/05 10:27:01;;;;;;;0.40;0.40;;;;;;;21.86;93.54;99154.75;4991881;28;20669;-76
2023/07/05 10:29:29;;;;;;;0.77;0.50;;;;;;;21.93;88.16;99096.91;4975744;28;20227;-78
2023/07/05 10:31:58;;;;;;;0.77;0.70;;;;;;;22.18;87.32;99109.84;4996626;28;20231;-82
2023/07/05 10:34:25;;;;;;;1.45;0.98;;;;;;;22.39;84.52;99083.47;4994025;28;20242;-78
2023/07/05 10:36:52;;;;;;;0.65;0.65;;;;;;;22.81;88.51;99159.97;4992537;28;20223;-76
2023/07/05 10:39:26;;;;;;;0.93;0.65;;;;;;;22.45;86.48;99052.59;4990071;28;20223;-73
2023/07/05 10:41:57;;;;;;;0.40;0.40;;;;;;;22.72;86.21;99088.59;4978673;28;20644;-74
2023/07/05 10:44:27;;;;;;;1.45;0.90;;;;;;;22.59;82.69;98988.81;4991808;28;20314;-74
2023/07/05 10:46:55;;;;;;;0.30;0.30;;;;;;;22.79;80.44;98976.75;4981619;28;20242;-76
2023/07/05 10:49:24;;;;;;;0.82;0.82;;;;;;;23.23;84.68;99072.81;4993283;28;20567;-76
2023/07/05 10:51:54;;;;;;;0.30;0.30;;;;;;;22.99;83.91;99005.16;4983475;28;20254;-74
2023/07/05 10:54:42;;;;;;;1.33;0.77;;;;;;;22.79;83.61;98943.56;4974951;28;20303;-73
2023/07/05 10:57:20;;;;;;;0.30;0.30;;;;;;;22.33;82.12;98846.84;4974456;28;20245;-73
2023/07/05 10:59:52;;;;;;;0.40;0.40;;;;;;;22.82;77.80;98865.22;4971256;28;20768;-74
2023/07/05 11:02:39;;;;;;;1.45;1.13;;;;;;;22.71;74.89;98790.44;4976136;28;20234;-74
2023/07/05 11:05:30;;;;;;;0.60;0.60;;;;;;;22.73;78.10;98817.28;4963426;28;20243;-76
2023/07/05 11:08:01;;;;;;;0.40;0.40;;;;;;;22.27;74.06;98656.06;4956468;28;20286;-73
2023/07/05 11:10:41;;;;;;;0.77;0.60;;;;;;;21.97;79.85;98657.06;4962457;28;20234;-74
2023/07/05 11:13:15;;;;;;;0.50;0.50;;;;;;;22.07;79.41;98668.09;4978023;28;20316;-74
2023/07/05 11:15:42;;;;;;;0.40;0.40;;;;;;;22.46;78.23;98702.31;4955106;28;20776;-73
2023/07/05 11:18:15;;;;;;;0.30;0.30;;;;;;;22.63;76.46;98687.72;4972441;28;20228;-75
2023/07/05 11:20:41;;;;;;;0.95;0.50;;;;;;;23.12;75.56;98741.00;4970297;28;20223;-73
2023/07/05 11:23:10;;;;;;;0.35;0.35;;;;;;;23.22;77.85;98760.94;4996821;28;20235;-74
2023/07/05 11:25:52;;;;;;;0.38;0.38;;;;;;;23.41;74.76;98723.66;4990856;28;20277;-74
2023/07/05 11:28:36;;;;;;;0.52;0.50;;;;;;;23.61;77.02;98754.66;4951465;28;20288;-74
2023/07/05 11:31:04;;;;;;;0.50;0.50;;;;;;;23.80;72.77;98717.28;4970310;28;20230;-74
2023/07/05 11:33:31;;;;;;;0.75;0.60;;;;;;;23.80;75.22;98719.13;4954618;28;20376;-75
2023/07/05 11:36:24;;;;;;;0.50;0.50;;;;;;;23.75;71.16;98645.72;4978076;28;20247;-74
2023/07/05 11:38:55;;;;;;;0.20;0.20;;;;;;;23.91;77.15;98711.97;4979864;28;20233;-74
2023/07/05 11:44:25;;;;;;;0.25;0.25;;;;;;;23.89;67.35;98565.44;4994995;23;20677;-76
2023/07/05 11:46:54;;;;;;;0.20;0.20;;;;;;;23.78;67.42;98524.91;4982360;28;20588;-75
2023/07/05 11:49:21;;;;;;;6.75;2.50;;;;;;;23.96;69.88;98567.69;4949382;28;20699;-76
2023/07/05 11:51:50;;;;;;;1.08;0.35;;;;;;;23.78;68.92;98497.91;4968008;28;20235;-75
2023/07/05 11:54:19;;;;;;;5.85;2.63;;;;;;;24.04;65.72;98482.41;4962400;28;20231;-76
2023/07/05 11:59:24;;;;;;;1.95;0.95;;;;;;;23.87;61.88;98351.44;4949249;28;20242;-77
2023/07/05 12:01:51;;;;;;;0.40;0.40;;;;;;;24.39;62.30;98444.59;4924194;28;20229;-76
2023/07/05 12:04:20;;;;;;;1.85;1.38;;;;;;;24.18;63.25;98393.09;4953396;28;20257;-77